Time;durP1;ratioP1;P1;durP2;ratioP2;P2;SDS_P1;SDS_P2;PMS_P1;PMS_P2;Temp;Humidity;BMP_temperature;BMP_pressure;BME280_temperature;BME280_humidity;BME280_pressure;Samples;Min_cycle;Max_cycle;Signal;HPM_P1;HPM_P2
2021/12/03 04:46:29;;;;;;;9.80;7.50;;;;;;;6.18;55.33;98399.03;6749315;28;20208;-86
2021/12/03 04:50:04;;;;;;;12.50;7.80;;;;;;;6.39;55.11;98449.91;6851904;29;20205;-86
2021/12/03 04:53:26;;;;;;;9.47;7.70;;;;;;;6.57;55.37;98483.31;6853301;28;20226;-87
2021/12/03 04:56:47;;;;;;;12.07;9.20;;;;;;;6.21;56.17;98470.91;6848652;29;20229;-86
2021/12/03 05:00:13;;;;;;;14.93;9.53;;;;;;;6.28;55.83;98458.41;6854032;29;20237;-86
2021/12/03 05:03:37;;;;;;;15.57;10.93;;;;;;;6.46;56.45;98507.06;6857531;28;20221;-86
2021/12/03 05:07:07;;;;;;;14.47;11.17;;;;;;;6.02;57.48;98516.94;6852160;28;20353;-85
2021/12/03 05:10:40;;;;;;;12.30;9.00;;;;;;;6.10;56.69;98460.66;6851681;28;20279;-85
2021/12/03 05:14:02;;;;;;;11.73;9.60;;;;;;;5.97;57.57;98517.50;6853104;28;20196;-85
2021/12/03 05:17:27;;;;;;;13.67;9.40;;;;;;;6.18;57.50;98517.59;6854997;28;20229;-86
2021/12/03 05:21:34;;;;;;;12.57;9.03;;;;;;;5.98;57.79;98511.13;6865801;28;20244;-89
2021/12/03 05:24:57;;;;;;;12.53;9.37;;;;;;;5.92;57.92;98511.88;6866976;28;20289;-84
2021/12/03 05:28:23;;;;;;;13.87;9.53;;;;;;;6.15;57.40;98511.78;6879380;28;20231;-85
2021/12/03 05:31:45;;;;;;;13.60;9.83;;;;;;;5.57;57.94;98456.38;6871169;28;20609;-87
2021/12/03 05:35:09;;;;;;;20.07;15.73;;;;;;;6.04;58.24;98505.06;6854513;28;20225;-87
2021/12/03 05:38:31;;;;;;;10.50;8.60;;;;;;;5.90;57.47;98497.81;6843924;29;20225;-86
2021/12/03 05:41:56;;;;;;;12.57;9.07;;;;;;;6.00;57.59;98494.88;6848318;28;20221;-87
2021/12/03 05:45:20;;;;;;;14.30;8.37;;;;;;;6.13;57.06;98481.72;6865354;28;20673;-87
2021/12/03 05:48:42;;;;;;;11.70;7.97;;;;;;;6.20;57.21;98514.75;6864658;28;20212;-86
2021/12/03 05:52:05;;;;;;;11.17;8.67;;;;;;;6.32;57.71;98543.53;6849601;28;20221;-87
2021/12/03 05:55:27;;;;;;;12.57;9.07;;;;;;;6.02;56.41;98469.59;6855717;28;20229;-87
2021/12/03 05:58:50;;;;;;;14.40;9.63;;;;;;;5.41;58.35;98477.88;6865335;28;20217;-88
2021/12/03 06:02:14;;;;;;;11.73;9.53;;;;;;;6.29;58.51;98559.97;6859421;28;20253;-85
2021/12/03 06:05:39;;;;;;;14.80;9.13;;;;;;;6.28;58.56;98561.00;6848250;28;20201;-86
2021/12/03 06:09:01;;;;;;;13.13;9.77;;;;;;;6.45;58.35;98553.59;6858720;28;20207;-86
2021/12/03 06:12:25;;;;;;;13.23;9.73;;;;;;;5.90;57.94;98457.69;6869061;28;20226;-87
2021/12/03 06:15:51;;;;;;;12.97;8.97;;;;;;;6.40;57.83;98572.06;6865173;28;20243;-85
2021/12/03 06:19:15;;;;;;;11.70;9.43;;;;;;;6.05;58.83;98541.50;6872169;28;20424;-85
2021/12/03 06:22:37;;;;;;;15.07;10.47;;;;;;;6.28;59.13;98581.56;6870198;28;20222;-86
2021/12/03 06:26:01;;;;;;;13.13;8.97;;;;;;;6.52;58.38;98578.59;6862499;28;20209;-88
2021/12/03 06:29:24;;;;;;;14.23;10.57;;;;;;;6.13;58.19;98541.41;6850518;28;20577;-87
2021/12/03 06:32:48;;;;;;;13.40;10.00;;;;;;;5.71;57.15;98500.19;6840254;28;20233;-88
2021/12/03 06:36:10;;;;;;;11.73;9.60;;;;;;;6.50;56.61;98589.53;6845988;28;20221;-85
2021/12/03 06:40:22;;;;;;;13.23;9.60;;;;;;;6.50;56.39;98604.75;6869757;28;20233;-84
2021/12/03 06:43:44;;;;;;;12.40;9.17;;;;;;;6.31;55.83;98549.09;6861498;28;20212;-85
2021/12/03 06:47:06;;;;;;;15.87;9.53;;;;;;;6.55;55.88;98595.13;6856518;28;20208;-86
2021/12/03 06:50:38;;;;;;;13.33;9.20;;;;;;;6.87;55.06;98604.63;6854616;28;20256;-89
2021/12/03 06:54:28;;;;;;;10.63;9.33;;;;;;;6.22;54.72;98476.06;6869814;28;20261;-87
2021/12/03 06:58:30;;;;;;;11.83;8.43;;;;;;;7.28;53.82;98603.09;6863999;28;20632;-86
2021/12/03 07:01:55;;;;;;;11.90;8.80;;;;;;;6.86;53.39;98611.03;6865420;28;20232;-88
2021/12/03 07:05:17;;;;;;;10.67;8.50;;;;;;;6.93;53.19;98615.47;6877371;28;20237;-87
2021/12/03 07:08:40;;;;;;;9.30;8.30;;;;;;;7.10;53.35;98618.75;6873348;28;20269;-89
2021/12/03 07:12:15;;;;;;;8.37;7.40;;;;;;;6.96;52.24;98639.19;6858252;28;20234;-87
2021/12/03 07:15:59;;;;;;;10.67;7.63;;;;;;;7.05;52.54;98632.72;6858052;28;20217;-86
2021/12/03 07:19:37;;;;;;;9.80;8.27;;;;;;;6.99;53.27;98638.00;6868853;28;20213;-88
2021/12/03 07:23:00;;;;;;;9.30;8.03;;;;;;;7.05;53.20;98653.31;6875756;28;20227;-86
2021/12/03 07:26:25;;;;;;;8.97;8.03;;;;;;;6.75;53.02;98657.03;6865299;28;20219;-89
2021/12/03 07:29:48;;;;;;;11.40;8.43;;;;;;;6.77;54.02;98657.69;6868931;28;20205;-85
2021/12/03 07:33:17;;;;;;;14.20;8.87;;;;;;;6.79;54.79;98648.44;6855886;28;20241;-87
2021/12/03 07:36:48;;;;;;;8.53;7.03;;;;;;;6.93;53.18;98652.13;6869056;28;20235;-88
2021/12/03 07:40:12;;;;;;;8.07;7.27;;;;;;;6.83;52.41;98665.81;6870335;28;20280;-86
2021/12/03 07:43:50;;;;;;;8.77;7.33;;;;;;;6.92;51.52;98655.84;6876063;28;20281;-86
2021/12/03 07:51:52;;;;;;;;;;;;;;;;;;;;;
2021/12/03 07:55:14;;;;;;;9.60;8.23;;;;;;;6.65;52.33;98645.75;6846394;28;20366;-88
2021/12/03 07:58:46;;;;;;;10.97;8.40;;;;;;;6.80;53.15;98676.91;6857295;28;20197;-86
2021/12/03 08:02:17;;;;;;;11.40;9.43;;;;;;;6.45;52.60;98650.00;6855381;28;20214;-86
2021/12/03 08:05:40;;;;;;;12.67;9.73;;;;;;;6.53;53.53;98636.50;6868818;28;20683;-87
2021/12/03 08:09:01;;;;;;;14.70;8.53;;;;;;;7.07;51.98;98673.56;6866041;28;20199;-87
2021/12/03 08:16:00;;;;;;;10.13;9.07;;;;;;;7.16;51.88;98685.88;6839409;28;20226;-86
2021/12/03 08:19:22;;;;;;;10.27;9.07;;;;;;;7.01;51.35;98630.59;6866140;28;20205;-87
2021/12/03 08:22:44;;;;;;;11.77;9.23;;;;;;;7.39;50.42;98685.72;6875550;28;20423;-87
2021/12/03 08:26:05;;;;;;;9.53;7.57;;;;;;;7.15;50.68;98652.03;6866657;28;20288;-84
2021/12/03 08:29:27;;;;;;;10.73;7.67;;;;;;;9.01;47.37;98671.09;6857358;28;20213;-79
2021/12/03 08:32:50;;;;;;;6.87;6.17;;;;;;;10.15;41.95;98651.22;6855177;28;20234;-81
2021/12/03 08:36:12;;;;;;;7.47;6.73;;;;;;;11.58;38.57;98650.13;6866732;28;20236;-81
2021/12/03 08:39:33;;;;;;;7.93;6.50;;;;;;;11.03;38.97;98646.16;6859016;28;20211;-82
2021/12/03 08:42:55;;;;;;;8.63;6.70;;;;;;;10.86;40.69;98673.81;6847632;28;20229;-82
2021/12/03 08:46:21;;;;;;;8.03;6.53;;;;;;;10.37;41.86;98650.00;6865827;28;20200;-82
2021/12/03 08:49:48;;;;;;;6.83;6.13;;;;;;;8.95;44.36;98671.91;6858758;28;20220;-82
2021/12/03 08:53:21;;;;;;;7.07;6.37;;;;;;;8.86;44.81;98683.00;6856769;28;20242;-82
2021/12/03 08:56:42;;;;;;;7.13;6.27;;;;;;;8.39;46.00;98672.97;6866674;28;20547;-82
2021/12/03 09:00:08;;;;;;;7.80;7.10;;;;;;;8.58;47.02;98671.44;6857648;28;20209;-81
2021/12/03 09:03:30;;;;;;;7.10;6.40;;;;;;;8.65;45.49;98670.47;6847033;28;20285;-81
2021/12/03 09:06:53;;;;;;;8.73;6.67;;;;;;;8.22;46.92;98686.84;6866724;28;20203;-81
2021/12/03 09:10:15;;;;;;;7.30;6.60;;;;;;;8.36;46.56;98680.59;6848523;28;20206;-81
2021/12/03 09:13:37;;;;;;;9.03;7.30;;;;;;;8.44;47.62;98686.63;6849912;28;20283;-82
2021/12/03 09:17:04;;;;;;;8.13;6.67;;;;;;;8.80;45.87;98673.91;6838761;28;20234;-84
2021/12/03 09:20:40;;;;;;;9.17;6.30;;;;;;;8.36;46.96;98684.09;6863781;28;20212;-88
2021/12/03 09:24:13;;;;;;;5.77;4.87;;;;;;;8.69;44.09;98649.41;6874278;28;20208;-88
2021/12/03 09:27:35;;;;;;;5.50;4.57;;;;;;;7.88;45.39;98671.44;6864366;28;20269;-89
2021/12/03 09:30:57;;;;;;;4.50;4.07;;;;;;;8.65;44.51;98686.59;6860226;28;20241;-89
2021/12/03 09:34:20;;;;;;;4.93;4.03;;;;;;;8.42;44.36;98686.00;6873642;28;20220;-88
2021/12/03 09:37:42;;;;;;;6.47;5.33;;;;;;;8.14;43.43;98650.19;6878235;28;20234;-89
2021/12/03 09:41:10;;;;;;;9.67;7.33;;;;;;;7.77;44.72;98612.88;6870963;28;20230;-90
2021/12/03 09:44:31;;;;;;;7.60;5.63;;;;;;;8.71;44.74;98632.06;6875187;28;20207;-88
2021/12/03 09:47:53;;;;;;;9.77;6.80;;;;;;;8.90;43.53;98677.03;6858926;28;20208;-88
2021/12/03 09:51:15;;;;;;;7.10;5.00;;;;;;;9.21;42.66;98680.94;6872053;28;20220;-89
2021/12/03 09:55:15;;;;;;;5.97;3.80;;;;;;;9.47;41.70;98678.38;6860333;28;20202;-89
2021/12/03 09:59:11;;;;;;;5.27;4.33;;;;;;;9.22;42.55;98674.53;6843041;28;20230;-89
2021/12/03 10:14:04;;;;;;;4.50;4.10;;;;;;;8.87;44.33;98639.81;6878338;28;20208;-84
2021/12/03 10:17:45;;;;;;;4.13;3.47;;;;;;;9.64;42.01;98644.66;6855499;28;20229;-86
2021/12/03 10:33:14;;;;;;;5.33;3.63;;;;;;;9.03;41.14;98648.38;6866478;28;20235;-88
2021/12/03 10:36:49;;;;;;;3.70;3.40;;;;;;;9.05;42.68;98630.16;6876646;28;20225;-85
2021/12/03 10:40:37;;;;;;;11.80;6.50;;;;;;;9.79;42.49;98650.72;6865465;28;20205;-86
2021/12/03 10:44:22;;;;;;;4.60;3.67;;;;;;;9.46;43.45;98606.75;6854489;28;20202;-89
2021/12/03 10:47:57;;;;;;;45.00;17.23;;;;;;;10.73;40.84;98601.00;6866225;28;20199;-84
2021/12/03 10:51:42;;;;;;;7.00;5.67;;;;;;;10.65;40.62;98631.75;6872649;28;20249;-87
2021/12/03 10:55:39;;;;;;;3.60;3.27;;;;;;;11.15;39.77;98632.88;6869482;28;20200;-85
2021/12/03 10:59:37;;;;;;;5.73;3.63;;;;;;;9.41;43.18;98603.00;6871901;28;20277;-81
2021/12/03 11:29:24;;;;;;;9.17;5.40;;;;;;;10.23;42.62;98585.53;6879199;28;20814;-86
2021/12/03 12:00:39;;;;;;;6.00;4.00;;;;;;;8.46;43.52;98563.69;6873737;28;20264;-86
2021/12/03 12:04:51;;;;;;;7.87;5.23;;;;;;;8.86;43.45;98557.50;6864883;28;20230;-89
2021/12/03 12:24:00;;;;;;;6.10;4.30;;;;;;;9.38;43.74;98536.13;6858806;28;20250;-88
2021/12/03 14:51:03;;;;;;;3.30;3.00;;;;;;;9.62;42.47;98434.13;6856395;28;20212;-89
2021/12/03 14:55:04;;;;;;;3.23;3.00;;;;;;;8.98;41.90;98416.91;6915476;28;20265;-86
2021/12/03 14:58:33;;;;;;;4.77;3.23;;;;;;;9.18;41.38;98427.69;6940149;28;20202;-86
2021/12/03 15:06:08;;;;;;;3.60;3.27;;;;;;;9.41;42.15;98437.03;6987839;28;20235;-87
2021/12/03 16:43:45;;;;;;;7.13;4.03;;;;;;;7.77;43.74;98360.66;6756939;23;20240;-79
2021/12/03 16:47:17;;;;;;;4.03;3.43;;;;;;;7.47;44.00;98336.94;6919372;28;20288;-80
2021/12/03 16:54:29;;;;;;;6.77;4.03;;;;;;;8.05;43.99;98357.88;6919696;28;20259;-80
2021/12/03 16:57:53;;;;;;;8.13;5.80;;;;;;;8.03;44.53;98362.66;6921508;28;20576;-81
2021/12/03 17:01:21;;;;;;;8.60;6.20;;;;;;;7.84;45.39;98355.34;6922850;28;20211;-81
2021/12/03 17:49:15;;;;;;;21.93;9.70;;;;;;;8.23;45.77;98305.34;7040278;27;21079;-81
2021/12/03 17:53:05;;;;;;;135.33;46.57;;;;;;;8.21;45.36;98307.41;7060282;28;20208;-82
2021/12/03 17:56:28;;;;;;;106.47;39.67;;;;;;;8.16;44.78;98274.94;7031307;28;20204;-80
2021/12/03 17:59:51;;;;;;;48.10;19.73;;;;;;;8.15;44.44;98294.75;7015943;28;20202;-82
2021/12/03 18:03:19;;;;;;;59.77;26.13;;;;;;;7.88;44.96;98290.31;6998514;28;20234;-81
2021/12/03 18:06:52;;;;;;;23.10;12.87;;;;;;;8.05;44.66;98282.72;6975037;28;20227;-82
2021/12/03 18:54:42;;;;;;;3.60;3.30;;;;;;;7.51;43.68;98214.81;6986294;28;20224;-79
2021/12/03 18:58:06;;;;;;;3.90;3.33;;;;;;;7.34;43.51;98128.56;6992246;28;20566;-79
2021/12/03 19:01:30;;;;;;;4.40;3.80;;;;;;;8.03;43.11;98202.41;6978958;28;20670;-80
2021/12/03 19:04:56;;;;;;;7.07;4.13;;;;;;;8.40;43.17;98209.09;6978041;28;20248;-80
2021/12/03 19:08:21;;;;;;;4.67;3.97;;;;;;;8.35;43.98;98203.50;6979764;28;20208;-80
2021/12/03 19:11:49;;;;;;;7.27;5.27;;;;;;;8.26;43.95;98212.81;6978100;28;20201;-79
2021/12/03 19:15:13;;;;;;;7.13;4.53;;;;;;;8.28;44.16;98206.19;6977740;28;20295;-79
2021/12/03 19:18:36;;;;;;;6.17;4.57;;;;;;;7.92;44.31;98184.22;6976420;28;20201;-79
2021/12/03 19:21:59;;;;;;;4.57;4.13;;;;;;;7.98;43.86;98164.63;6979172;28;20229;-80
2021/12/03 19:25:21;;;;;;;4.70;4.00;;;;;;;7.96;44.07;98171.22;6978737;28;20619;-80
2021/12/03 19:28:42;;;;;;;4.10;3.70;;;;;;;7.80;43.86;98176.97;6979864;28;20236;-79
2021/12/03 19:32:05;;;;;;;6.20;3.77;;;;;;;7.77;43.79;98153.22;7006420;28;20597;-79
2021/12/03 19:35:28;;;;;;;4.57;3.90;;;;;;;7.99;42.83;98139.44;6980306;28;20231;-80
2021/12/03 19:38:50;;;;;;;4.53;4.03;;;;;;;7.99;42.61;98141.28;6977469;28;20222;-79
2021/12/03 19:42:14;;;;;;;4.73;3.57;;;;;;;7.38;43.36;98137.81;6977591;28;20210;-79
2021/12/03 19:45:44;;;;;;;4.23;3.73;;;;;;;6.97;44.44;98133.53;6978167;28;20229;-80
2021/12/03 19:49:11;;;;;;;3.80;3.50;;;;;;;6.86;44.13;98101.94;6996885;28;20256;-79
2021/12/03 19:52:40;;;;;;;4.23;3.80;;;;;;;7.18;43.76;98120.03;7006071;28;20663;-79
2021/12/03 19:56:01;;;;;;;4.10;3.73;;;;;;;7.26;43.42;98125.22;6983198;28;20232;-79
2021/12/03 19:59:23;;;;;;;5.07;3.60;;;;;;;7.57;43.21;98130.88;6979151;28;20198;-80
2021/12/03 20:02:45;;;;;;;8.83;4.30;;;;;;;7.26;43.54;98120.66;6979230;28;20212;-79
2021/12/03 20:06:06;;;;;;;4.83;3.70;;;;;;;7.43;43.66;98095.16;7002409;28;20223;-79
2021/12/03 20:09:35;;;;;;;4.37;3.97;;;;;;;7.15;43.56;98078.38;6984554;28;20214;-79
2021/12/03 20:12:57;;;;;;;4.10;3.77;;;;;;;7.16;43.75;98088.06;6980524;28;20209;-78
2021/12/03 20:16:25;;;;;;;5.30;4.03;;;;;;;6.97;43.74;98093.34;6977965;28;20228;-79
2021/12/03 20:19:50;;;;;;;5.17;4.47;;;;;;;7.32;42.92;98058.19;6977483;28;20197;-78
2021/12/03 20:23:25;;;;;;;4.80;3.67;;;;;;;7.32;43.26;98085.00;6976513;28;20218;-79
2021/12/03 20:26:52;;;;;;;4.83;4.33;;;;;;;7.26;43.50;98075.09;6984412;28;20690;-79
2021/12/03 20:30:22;;;;;;;5.53;4.30;;;;;;;7.44;43.10;98028.94;6954638;28;20258;-79
2021/12/03 20:34:07;;;;;;;4.40;4.00;;;;;;;7.40;43.29;98060.72;6951571;28;20240;-78
2021/12/03 20:37:30;;;;;;;7.13;4.73;;;;;;;7.29;43.79;98055.94;6969093;28;20576;-79
2021/12/03 20:40:54;;;;;;;4.97;3.77;;;;;;;7.14;44.06;98039.19;6976438;28;20209;-79
2021/12/03 20:48:13;;;;;;;4.73;4.23;;;;;;;7.72;42.86;98038.44;6940416;28;20227;-79
2021/12/03 20:51:52;;;;;;;5.07;4.23;;;;;;;7.07;44.50;98037.53;6948983;28;20196;-79
2021/12/03 21:09:52;;;;;;;4.53;4.00;;;;;;;7.67;42.69;98013.28;6981879;28;20208;-79
2021/12/03 21:13:21;;;;;;;3.90;3.50;;;;;;;7.86;41.60;98010.59;6963318;28;20232;-79
2021/12/03 21:16:52;;;;;;;4.43;4.03;;;;;;;7.93;41.27;97984.59;6947012;28;20316;-79
2021/12/03 21:20:25;;;;;;;4.17;3.70;;;;;;;7.59;41.30;97989.31;6972838;28;20212;-79
2021/12/03 21:23:47;;;;;;;4.93;3.80;;;;;;;8.44;40.60;97980.16;6960080;28;20268;-79
2021/12/03 21:27:15;;;;;;;4.63;3.90;;;;;;;8.63;39.71;97979.28;6959197;28;20231;-79
2021/12/03 21:30:47;;;;;;;4.33;3.93;;;;;;;8.33;39.76;97983.50;6974072;28;20275;-79
2021/12/03 21:41:35;;;;;;;4.03;3.63;;;;;;;8.69;40.67;97975.75;6908353;28;20210;-79
2021/12/03 21:44:57;;;;;;;4.40;4.00;;;;;;;8.76;40.11;97976.53;6969227;28;20222;-79
2021/12/03 21:48:19;;;;;;;4.57;3.90;;;;;;;8.68;40.06;97963.34;7002407;28;20235;-79
2021/12/03 21:51:42;;;;;;;4.63;4.00;;;;;;;8.18;41.46;97966.78;6984432;28;20210;-79
2021/12/03 21:55:07;;;;;;;4.80;4.30;;;;;;;8.35;41.30;97959.13;6974484;28;20312;-79
2021/12/03 21:58:29;;;;;;;4.43;4.03;;;;;;;8.73;40.66;97958.13;6974289;28;20572;-78
